• Join FlightAware (Why Join?)
  • Login
  • US Flag 
10:18AM EDT


 

Airport Tracker/Info


-or-


 

Live Flight TrackerFlight Track Log ✈ C-FTOH ✈ 15-Apr-2013 ✈ CYQB - CYBG

Flight Track Log - Related Links

Times and Time Zones

All times are in EDT time to prevent confusion due to time zone crossing. See the C-FTOH flight status page for this flight to view local times or setup timezone preferences in your user account.

Time Position Orientation Groundspeed Altitude Reporting Facility
EDT Latitude Longitude Course Direction KTS MPH feet Rate Location/Type
07:47AM 46.7860 -71.4020 223° Southwest 156 180 300  Level FlightAware
07:47AM 46.7780 -71.4130 223° Southwest 164 189 1,000 2,220 Climbing FlightAware
07:48AM 46.7600 -71.4390 225° Southwest 202 232 2,000 2,700 Climbing FlightAware
07:48AM 46.7430 -71.4620 223° Southwest 204 235 3,500 3,120 Climbing FlightAware
07:49AM 46.7280 -71.4670 193° South 219 252 4,100 2,760 Climbing FlightAware
07:49AM 46.7140 -71.4590 159° South 228 262 4,900 3,360 Climbing FlightAware
07:49AM 46.7040 -71.4410 129° Southeast 232 267 5,800 3,360 Climbing FlightAware
07:49AM 46.7010 -71.4270 107° East 233 268 6,300 3,600 Climbing FlightAware
07:50AM 46.7040 -71.4040 79° East 231 266 7,300 3,180 Climbing FlightAware
07:50AM 46.7140 -71.3860 51° Northeast 244 281 7,900 1,800 Climbing FlightAware
07:50AM 46.7300 -71.3750 25° Northeast 266 306 8,200 2,160 Climbing FlightAware
07:50AM 46.7480 -71.3640 23° Northeast 277 319 9,000 2,460 Climbing FlightAware
07:51AM 46.7970 -71.3310 25° Northeast 318 366 10,500 3,120 Climbing FlightAware
07:52AM 46.8560 -71.2920 24° Northeast 313 360 13,500 3,840 Climbing FlightAware
07:52AM 46.9120 -71.2810 North 309 356 16,000 2,280 Climbing FlightAware
07:53AM 46.9700 -71.2800 North 309 356 16,600 420 Climbing FlightAware
07:54AM 47.0330 -71.2800 360° North 307 353 16,600  Level FlightAware
07:54AM 47.0890 -71.2790 North 306 352 16,600  Level FlightAware
07:55AM 47.1530 -71.2790 360° North 306 352 16,600  Level FlightAware
07:56AM 47.2090 -71.2780 North 306 352 16,600  Level FlightAware
07:57AM 47.2660 -71.2770 North 306 352 16,600  Level FlightAware
07:57AM 47.3290 -71.2770 360° North 306 352 16,600  Level FlightAware
07:58AM 47.3850 -71.2760 North 306 352 16,600  Level FlightAware
07:59AM 47.4400 -71.2750 North 305 351 16,600  Level FlightAware
07:59AM 47.4840 -71.2750 360° North 305 351 16,600  Level FlightAware
08:00AM 47.5400 -71.2770 359° North 305 351 16,600 -360 Level FlightAware
08:01AM 47.6010 -71.2780 359° North 287 330 16,100 -1,080 Descending FlightAware
08:01AM 47.6540 -71.2800 359° North 283 326 15,100 -1,500 Descending FlightAware
08:02AM 47.7120 -71.2810 359° North 278 320 14,000 -1,500 Descending FlightAware